sensor_id;sensor_type;location;lat;lon;timestamp;pressure;altitude;pressure_sealevel;temperature;humidity
43707;BME280;61348;53.392;-6.248;2022-12-29T00:01:58;97955.22;;;5.59;100.00
43707;BME280;61348;53.392;-6.248;2022-12-29T00:04:25;97961.88;;;5.58;100.00
43707;BME280;61348;53.392;-6.248;2022-12-29T00:06:52;97962.69;;;5.59;100.00
43707;BME280;61348;53.392;-6.248;2022-12-29T00:09:19;97964.25;;;5.60;100.00
43707;BME280;61348;53.392;-6.248;2022-12-29T00:12:11;97969.34;;;5.58;100.00
43707;BME280;61348;53.392;-6.248;2022-12-29T00:14:37;97963.44;;;5.56;100.00
43707;BME280;61348;53.392;-6.248;2022-12-29T00:17:23;97976.38;;;5.55;100.00
43707;BME280;61348;53.392;-6.248;2022-12-29T00:19:49;97979.91;;;5.56;100.00
43707;BME280;61348;53.392;-6.248;2022-12-29T00:23:00;97979.91;;;5.56;100.00
43707;BME280;61348;53.392;-6.248;2022-12-29T00:25:46;97987.69;;;5.53;100.00
43707;BME280;61348;53.392;-6.248;2022-12-29T00:28:37;97996.31;;;5.52;100.00
43707;BME280;61348;53.392;-6.248;2022-12-29T00:31:22;97999.06;;;5.52;100.00
43707;BME280;61348;53.392;-6.248;2022-12-29T00:34:10;97993.97;;;5.50;100.00
43707;BME280;61348;53.392;-6.248;2022-12-29T00:36:56;97996.72;;;5.50;100.00
43707;BME280;61348;53.392;-6.248;2022-12-29T00:39:23;98003.34;;;5.49;100.00
43707;BME280;61348;53.392;-6.248;2022-12-29T00:42:40;98014.34;;;5.49;100.00
43707;BME280;61348;53.392;-6.248;2022-12-29T00:45:25;98020.22;;;5.48;100.00
43707;BME280;61348;53.392;-6.248;2022-12-29T00:47:51;98030.81;;;5.49;100.00
43707;BME280;61348;53.392;-6.248;2022-12-29T00:50:18;98023.72;;;5.48;100.00
43707;BME280;61348;53.392;-6.248;2022-12-29T00:52:51;98019.03;;;5.49;100.00
43707;BME280;61348;53.392;-6.248;2022-12-29T00:55:37;98028.06;;;5.49;100.00
43707;BME280;61348;53.392;-6.248;2022-12-29T00:58:04;98017.47;;;5.48;100.00
43707;BME280;61348;53.392;-6.248;2022-12-29T01:00:31;98018.25;;;5.48;100.00
43707;BME280;61348;53.392;-6.248;2022-12-29T01:02:58;98023.72;;;5.48;100.00
43707;BME280;61348;53.392;-6.248;2022-12-29T01:05:25;98029.22;;;5.48;100.00
43707;BME280;61348;53.392;-6.248;2022-12-29T01:07:51;98042.53;;;5.46;100.00
43707;BME280;61348;53.392;-6.248;2022-12-29T01:10:18;98052.72;;;5.46;100.00
43707;BME280;61348;53.392;-6.248;2022-12-29T01:12:45;98041.72;;;5.46;100.00
43707;BME280;61348;53.392;-6.248;2022-12-29T01:23:30;98060.47;;;5.40;100.00
43707;BME280;61348;53.392;-6.248;2022-12-29T01:26:33;98060.47;;;5.37;100.00
43707;BME280;61348;53.392;-6.248;2022-12-29T01:29:34;98062.81;;;5.38;100.00
43707;BME280;61348;53.392;-6.248;2022-12-29T01:32:00;98062.03;;;5.38;100.00
43707;BME280;61348;53.392;-6.248;2022-12-29T01:45:02;98062.00;;;5.34;100.00
43707;BME280;61348;53.392;-6.248;2022-12-29T01:47:50;98069.06;;;5.35;100.00
43707;BME280;61348;53.392;-6.248;2022-12-29T01:58:04;98091.75;;;5.32;100.00
43707;BME280;61348;53.392;-6.248;2022-12-29T02:01:07;98084.31;;;5.33;100.00
43707;BME280;61348;53.392;-6.248;2022-12-29T02:03:35;98091.75;;;5.32;100.00
43707;BME280;61348;53.392;-6.248;2022-12-29T02:06:21;98091.75;;;5.32;100.00
43707;BME280;61348;53.392;-6.248;2022-12-29T02:09:12;98101.97;;;5.32;100.00
43707;BME280;61348;53.392;-6.248;2022-12-29T02:14:58;98096.81;;;5.30;100.00
43707;BME280;61348;53.392;-6.248;2022-12-29T02:17:52;98098.00;;;5.29;100.00
43707;BME280;61348;53.392;-6.248;2022-12-29T02:23:23;98108.97;;;5.29;100.00
43707;BME280;61348;53.392;-6.248;2022-12-29T02:38:20;98124.59;;;5.25;100.00
43707;BME280;61348;53.392;-6.248;2022-12-29T02:55:35;98162.25;;;5.28;100.00
43707;BME280;61348;53.392;-6.248;2022-12-29T03:05:38;98168.56;;;5.32;100.00
43707;BME280;61348;53.392;-6.248;2022-12-29T03:12:07;98181.13;;;5.33;100.00
43707;BME280;61348;53.392;-6.248;2022-12-29T03:15:03;98179.97;;;5.34;100.00
43707;BME280;61348;53.392;-6.248;2022-12-29T03:18:06;98194.47;;;5.35;100.00
43707;BME280;61348;53.392;-6.248;2022-12-29T03:20:41;98189.75;;;5.35;100.00
43707;BME280;61348;53.392;-6.248;2022-12-29T03:23:11;98210.97;;;5.38;100.00
43707;BME280;61348;53.392;-6.248;2022-12-29T03:25:51;98203.16;;;5.40;100.00
43707;BME280;61348;53.392;-6.248;2022-12-29T03:40:03;98242.34;;;5.37;100.00
43707;BME280;61348;53.392;-6.248;2022-12-29T03:42:52;98232.56;;;5.40;100.00
43707;BME280;61348;53.392;-6.248;2022-12-29T03:45:58;98257.28;;;5.43;100.00
43707;BME280;61348;53.392;-6.248;2022-12-29T03:48:24;98277.69;;;5.46;100.00
43707;BME280;61348;53.392;-6.248;2022-12-29T03:50:51;98263.63;;;5.47;100.00
43707;BME280;61348;53.392;-6.248;2022-12-29T03:53:39;98271.13;;;5.50;100.00
43707;BME280;61348;53.392;-6.248;2022-12-29T03:56:06;98278.59;;;5.53;100.00
43707;BME280;61348;53.392;-6.248;2022-12-29T04:02:23;98301.00;;;5.59;100.00
43707;BME280;61348;53.392;-6.248;2022-12-29T04:07:45;98295.91;;;5.58;100.00
43707;BME280;61348;53.392;-6.248;2022-12-29T04:11:09;98281.34;;;5.53;100.00
43707;BME280;61348;53.392;-6.248;2022-12-29T04:13:36;98306.78;;;5.50;100.00
43707;BME280;61348;53.392;-6.248;2022-12-29T04:16:07;98313.03;;;5.47;100.00
43707;BME280;61348;53.392;-6.248;2022-12-29T04:18:34;98310.63;;;5.46;100.00
43707;BME280;61348;53.392;-6.248;2022-12-29T04:24:54;98301.94;;;5.40;100.00
43707;BME280;61348;53.392;-6.248;2022-12-29T04:31:31;98312.88;;;5.37;100.00
43707;BME280;61348;53.392;-6.248;2022-12-29T04:38:28;98318.28;;;5.33;100.00
43707;BME280;61348;53.392;-6.248;2022-12-29T04:40:55;98324.94;;;5.32;100.00
43707;BME280;61348;53.392;-6.248;2022-12-29T04:43:21;98329.28;;;5.33;100.00
43707;BME280;61348;53.392;-6.248;2022-12-29T04:49:38;98333.59;;;5.34;100.00
43707;BME280;61348;53.392;-6.248;2022-12-29T05:00:19;98346.44;;;5.27;100.00
43707;BME280;61348;53.392;-6.248;2022-12-29T05:06:56;98355.38;;;5.24;100.00
43707;BME280;61348;53.392;-6.248;2022-12-29T05:13:18;98366.28;;;5.20;100.00
43707;BME280;61348;53.392;-6.248;2022-12-29T05:15:53;98382.75;;;5.20;100.00
43707;BME280;61348;53.392;-6.248;2022-12-29T05:21:27;98384.88;;;5.30;100.00
43707;BME280;61348;53.392;-6.248;2022-12-29T05:23:53;98386.03;;;5.29;100.00
43707;BME280;61348;53.392;-6.248;2022-12-29T05:26:20;98398.16;;;5.28;100.00
43707;BME280;61348;53.392;-6.248;2022-12-29T05:28:47;98393.41;;;5.25;100.00
43707;BME280;61348;53.392;-6.248;2022-12-29T05:35:04;98401.13;;;5.16;100.00
43707;BME280;61348;53.392;-6.248;2022-12-29T05:37:31;98386.94;;;5.14;99.80
43707;BME280;61348;53.392;-6.248;2022-12-29T05:40:11;98390.41;;;5.11;99.78
43707;BME280;61348;53.392;-6.248;2022-12-29T05:42:38;98385.25;;;5.06;99.66
43707;BME280;61348;53.392;-6.248;2022-12-29T05:45:05;98406.75;;;5.04;99.83
43707;BME280;61348;53.392;-6.248;2022-12-29T05:47:33;98412.63;;;5.03;99.64
43707;BME280;61348;53.392;-6.248;2022-12-29T05:50:01;98403.94;;;5.01;99.81
43707;BME280;61348;53.392;-6.248;2022-12-29T05:52:28;98418.03;;;4.99;99.59
43707;BME280;61348;53.392;-6.248;2022-12-29T06:07:06;98404.56;;;4.90;98.61
43707;BME280;61348;53.392;-6.248;2022-12-29T06:09:59;98402.19;;;4.89;98.40
43707;BME280;61348;53.392;-6.248;2022-12-29T06:12:26;98400.59;;;4.88;98.30
43707;BME280;61348;53.392;-6.248;2022-12-29T06:14:54;98413.09;;;4.85;98.20
43707;BME280;61348;53.392;-6.248;2022-12-29T06:35:17;98422.41;;;4.81;97.45
43707;BME280;61348;53.392;-6.248;2022-12-29T06:37:44;98413.00;;;4.82;97.83
43707;BME280;61348;53.392;-6.248;2022-12-29T06:44:01;98419.28;;;4.82;97.68
43707;BME280;61348;53.392;-6.248;2022-12-29T06:50:47;98417.03;;;4.88;97.52
43707;BME280;61348;53.392;-6.248;2022-12-29T06:53:16;98418.66;;;4.89;97.68
43707;BME280;61348;53.392;-6.248;2022-12-29T06:55:50;98421.38;;;4.89;97.63
43707;BME280;61348;53.392;-6.248;2022-12-29T06:58:17;98428.00;;;4.88;97.51
43707;BME280;61348;53.392;-6.248;2022-12-29T07:00:44;98425.66;;;4.86;97.32
43707;BME280;61348;53.392;-6.248;2022-12-29T07:03:10;98447.56;;;4.86;97.19
43707;BME280;61348;53.392;-6.248;2022-12-29T07:05:37;98431.94;;;4.87;97.19
43707;BME280;61348;53.392;-6.248;2022-12-29T07:08:20;98427.59;;;4.86;97.40
43707;BME280;61348;53.392;-6.248;2022-12-29T07:10:47;98440.16;;;4.87;97.16
43707;BME280;61348;53.392;-6.248;2022-12-29T07:17:25;98455.31;;;4.81;96.84
43707;BME280;61348;53.392;-6.248;2022-12-29T07:19:52;98476.44;;;4.80;96.40
43707;BME280;61348;53.392;-6.248;2022-12-29T07:22:18;98448.94;;;4.77;96.63
43707;BME280;61348;53.392;-6.248;2022-12-29T07:28:48;98468.84;;;4.74;96.41
43707;BME280;61348;53.392;-6.248;2022-12-29T07:31:42;98473.91;;;4.72;96.33
43707;BME280;61348;53.392;-6.248;2022-12-29T07:34:09;98459.78;;;4.70;96.51
43707;BME280;61348;53.392;-6.248;2022-12-29T07:40:09;98470.66;;;4.66;96.20
43707;BME280;61348;53.392;-6.248;2022-12-29T07:46:00;98484.75;;;4.65;96.22
43707;BME280;61348;53.392;-6.248;2022-12-29T07:48:27;98481.56;;;4.63;96.48
43707;BME280;61348;53.392;-6.248;2022-12-29T08:01:49;98500.03;;;4.66;96.60
43707;BME280;61348;53.392;-6.248;2022-12-29T08:04:16;98502.78;;;4.66;97.06
43707;BME280;61348;53.392;-6.248;2022-12-29T08:06:43;98499.28;;;4.69;96.58
43707;BME280;61348;53.392;-6.248;2022-12-29T08:13:02;98501.91;;;4.62;96.51
43707;BME280;61348;53.392;-6.248;2022-12-29T08:15:29;98511.25;;;4.61;96.64
43707;BME280;61348;53.392;-6.248;2022-12-29T08:17:58;98502.63;;;4.59;96.61
43707;BME280;61348;53.392;-6.248;2022-12-29T08:20:29;98501.81;;;4.58;96.64
43707;BME280;61348;53.392;-6.248;2022-12-29T08:22:56;98509.69;;;4.60;96.58
43707;BME280;61348;53.392;-6.248;2022-12-29T08:33:45;98498.66;;;4.56;96.17
43707;BME280;61348;53.392;-6.248;2022-12-29T08:36:32;98499.88;;;4.59;96.45
43707;BME280;61348;53.392;-6.248;2022-12-29T08:43:20;98527.56;;;4.54;96.13
43707;BME280;61348;53.392;-6.248;2022-12-29T08:45:47;98493.09;;;4.53;96.14
43707;BME280;61348;53.392;-6.248;2022-12-29T08:48:36;98517.31;;;4.51;96.00
43707;BME280;61348;53.392;-6.248;2022-12-29T08:51:37;98524.41;;;4.52;95.94
43707;BME280;61348;53.392;-6.248;2022-12-29T08:54:04;98539.22;;;4.51;95.81
43707;BME280;61348;53.392;-6.248;2022-12-29T08:56:31;98519.25;;;4.50;95.83
43707;BME280;61348;53.392;-6.248;2022-12-29T08:58:58;98554.09;;;4.50;95.76
43707;BME280;61348;53.392;-6.248;2022-12-29T09:01:24;98542.25;;;4.46;96.08
43707;BME280;61348;53.392;-6.248;2022-12-29T09:03:53;98538.38;;;4.47;96.02
43707;BME280;61348;53.392;-6.248;2022-12-29T09:07:00;98550.84;;;4.44;95.79
43707;BME280;61348;53.392;-6.248;2022-12-29T09:09:27;98552.00;;;4.43;95.65
43707;BME280;61348;53.392;-6.248;2022-12-29T09:11:54;98581.31;;;4.43;95.78
43707;BME280;61348;53.392;-6.248;2022-12-29T09:17:23;98593.09;;;4.43;95.61
43707;BME280;61348;53.392;-6.248;2022-12-29T09:20:34;98603.25;;;4.43;95.52
43707;BME280;61348;53.392;-6.248;2022-12-29T09:23:13;98591.84;;;4.41;95.61
43707;BME280;61348;53.392;-6.248;2022-12-29T09:25:39;98601.22;;;4.40;95.49
43707;BME280;61348;53.392;-6.248;2022-12-29T09:28:06;98595.72;;;4.40;95.68
43707;BME280;61348;53.392;-6.248;2022-12-29T09:30:34;98595.72;;;4.40;95.50
43707;BME280;61348;53.392;-6.248;2022-12-29T09:33:00;98602.00;;;4.40;95.66
43707;BME280;61348;53.392;-6.248;2022-12-29T09:35:28;98610.22;;;4.40;95.69
43707;BME280;61348;53.392;-6.248;2022-12-29T09:37:54;98612.63;;;4.42;95.66
43707;BME280;61348;53.392;-6.248;2022-12-29T09:44:23;98632.16;;;4.40;95.52
43707;BME280;61348;53.392;-6.248;2022-12-29T09:50:34;98624.28;;;4.39;95.78
43707;BME280;61348;53.392;-6.248;2022-12-29T09:56:21;98629.41;;;4.40;95.42
43707;BME280;61348;53.392;-6.248;2022-12-29T09:59:15;98630.56;;;4.39;95.63
43707;BME280;61348;53.392;-6.248;2022-12-29T10:05:04;98647.44;;;4.41;95.72
43707;BME280;61348;53.392;-6.248;2022-12-29T10:12:28;98646.81;;;4.48;95.63
43707;BME280;61348;53.392;-6.248;2022-12-29T10:18:13;98660.97;;;4.50;95.65
43707;BME280;61348;53.392;-6.248;2022-12-29T10:21:08;98677.03;;;4.51;95.94
43707;BME280;61348;53.392;-6.248;2022-12-29T10:34:55;98684.25;;;4.75;96.04
43707;BME280;61348;53.392;-6.248;2022-12-29T10:37:58;98689.53;;;4.83;95.79
43707;BME280;61348;53.392;-6.248;2022-12-29T10:46:09;98703.63;;;5.01;96.33
43707;BME280;61348;53.392;-6.248;2022-12-29T10:48:57;98704.97;;;5.07;96.25
43707;BME280;61348;53.392;-6.248;2022-12-29T10:51:27;98709.03;;;5.13;96.10
43707;BME280;61348;53.392;-6.248;2022-12-29T10:56:39;98719.72;;;5.18;96.31
43707;BME280;61348;53.392;-6.248;2022-12-29T10:59:24;98704.41;;;5.17;96.43
43707;BME280;61348;53.392;-6.248;2022-12-29T11:14:14;98732.44;;;5.45;96.43
43707;BME280;61348;53.392;-6.248;2022-12-29T11:16:56;98733.03;;;5.54;96.23
43707;BME280;61348;53.392;-6.248;2022-12-29T11:19:26;98750.72;;;5.57;96.03
43707;BME280;61348;53.392;-6.248;2022-12-29T11:21:54;98751.44;;;5.54;96.26
43707;BME280;61348;53.392;-6.248;2022-12-29T11:27:38;98758.16;;;5.37;96.21
43707;BME280;61348;53.392;-6.248;2022-12-29T11:36:42;98771.97;;;5.25;96.53
43707;BME280;61348;53.392;-6.248;2022-12-29T11:39:24;98775.44;;;5.22;96.57
43707;BME280;61348;53.392;-6.248;2022-12-29T11:41:53;98769.50;;;5.20;96.50
43707;BME280;61348;53.392;-6.248;2022-12-29T11:44:20;98778.88;;;5.19;96.32
43707;BME280;61348;53.392;-6.248;2022-12-29T11:46:49;98774.56;;;5.18;96.46
43707;BME280;61348;53.392;-6.248;2022-12-29T11:49:41;98786.69;;;5.17;96.31
43707;BME280;61348;53.392;-6.248;2022-12-29T11:56:02;98799.59;;;5.17;96.12
43707;BME280;61348;53.392;-6.248;2022-12-29T11:58:34;98819.16;;;5.15;96.00
43707;BME280;61348;53.392;-6.248;2022-12-29T12:03:35;98808.63;;;5.17;96.09
43707;BME280;61348;53.392;-6.248;2022-12-29T12:06:05;98797.66;;;5.17;96.06
43707;BME280;61348;53.392;-6.248;2022-12-29T12:08:48;98805.88;;;5.17;95.85
43707;BME280;61348;53.392;-6.248;2022-12-29T12:11:30;98811.81;;;5.19;95.90
43707;BME280;61348;53.392;-6.248;2022-12-29T12:14:16;98811.47;;;5.21;95.68
43707;BME280;61348;53.392;-6.248;2022-12-29T12:17:01;98809.94;;;5.23;95.62
43707;BME280;61348;53.392;-6.248;2022-12-29T12:19:40;98831.53;;;5.25;95.59
43707;BME280;61348;53.392;-6.248;2022-12-29T12:22:43;98824.47;;;5.24;95.57
43707;BME280;61348;53.392;-6.248;2022-12-29T12:25:20;98818.63;;;5.25;95.08
43707;BME280;61348;53.392;-6.248;2022-12-29T12:28:00;98815.16;;;5.28;95.27
43707;BME280;61348;53.392;-6.248;2022-12-29T12:30:40;98828.16;;;5.31;95.41
43707;BME280;61348;53.392;-6.248;2022-12-29T12:33:28;98823.13;;;5.33;95.35
43707;BME280;61348;53.392;-6.248;2022-12-29T12:47:47;98843.25;;;5.57;95.35
43707;BME280;61348;53.392;-6.248;2022-12-29T12:50:32;98863.78;;;5.63;95.50
43707;BME280;61348;53.392;-6.248;2022-12-29T12:53:29;98856.16;;;5.72;95.24
43707;BME280;61348;53.392;-6.248;2022-12-29T13:00:16;98861.06;;;5.82;94.68
43707;BME280;61348;53.392;-6.248;2022-12-29T13:07:32;98858.59;;;5.77;94.57
43707;BME280;61348;53.392;-6.248;2022-12-29T13:10:38;98889.41;;;5.86;94.52
43707;BME280;61348;53.392;-6.248;2022-12-29T13:16:27;98891.53;;;5.92;94.18
43707;BME280;61348;53.392;-6.248;2022-12-29T13:19:30;98893.50;;;5.92;94.13
43707;BME280;61348;53.392;-6.248;2022-12-29T13:22:34;98901.28;;;5.90;94.21
43707;BME280;61348;53.392;-6.248;2022-12-29T13:25:27;98919.63;;;5.86;94.10
43707;BME280;61348;53.392;-6.248;2022-12-29T13:39:19;98937.47;;;5.61;93.31
43707;BME280;61348;53.392;-6.248;2022-12-29T13:41:51;98945.69;;;5.61;93.45
43707;BME280;61348;53.392;-6.248;2022-12-29T13:45:02;98961.09;;;5.65;93.40
43707;BME280;61348;53.392;-6.248;2022-12-29T13:47:38;98942.78;;;5.69;93.23
43707;BME280;61348;53.392;-6.248;2022-12-29T13:50:17;98958.16;;;5.74;92.91
43707;BME280;61348;53.392;-6.248;2022-12-29T13:55:46;98969.16;;;5.89;92.91
43707;BME280;61348;53.392;-6.248;2022-12-29T14:01:00;98968.78;;;5.91;92.12
43707;BME280;61348;53.392;-6.248;2022-12-29T14:14:28;98982.69;;;5.82;91.26
43707;BME280;61348;53.392;-6.248;2022-12-29T14:17:12;98984.97;;;5.80;90.96
43707;BME280;61348;53.392;-6.248;2022-12-29T14:19:43;98978.34;;;5.81;90.97
43707;BME280;61348;53.392;-6.248;2022-12-29T14:23:52;98978.72;;;5.80;90.74
43707;BME280;61348;53.392;-6.248;2022-12-29T14:26:11;98991.13;;;5.74;90.16
43707;BME280;61348;53.392;-6.248;2022-12-29T14:28:47;98985.53;;;5.70;90.27
43707;BME280;61348;53.392;-6.248;2022-12-29T14:43:58;98991.63;;;5.32;89.65
43707;BME280;61348;53.392;-6.248;2022-12-29T14:46:56;99003.66;;;5.28;89.78
43707;BME280;61348;53.392;-6.248;2022-12-29T14:49:31;99014.09;;;5.22;89.67
43707;BME280;61348;53.392;-6.248;2022-12-29T14:52:23;99009.31;;;5.19;89.86
43707;BME280;61348;53.392;-6.248;2022-12-29T14:54:52;99011.63;;;5.17;90.03
43707;BME280;61348;53.392;-6.248;2022-12-29T14:58:05;99017.47;;;5.16;89.79
43707;BME280;61348;53.392;-6.248;2022-12-29T15:01:38;99010.75;;;5.13;89.92
43707;BME280;61348;53.392;-6.248;2022-12-29T15:04:17;99018.97;;;5.13;89.97
43707;BME280;61348;53.392;-6.248;2022-12-29T15:14:58;99023.81;;;5.04;89.91
43707;BME280;61348;53.392;-6.248;2022-12-29T15:17:26;99028.84;;;5.02;90.16
43707;BME280;61348;53.392;-6.248;2022-12-29T15:19:55;99033.09;;;5.00;89.92
43707;BME280;61348;53.392;-6.248;2022-12-29T15:26:11;99018.81;;;4.94;89.97
43707;BME280;61348;53.392;-6.248;2022-12-29T15:36:03;99029.13;;;4.85;90.19
43707;BME280;61348;53.392;-6.248;2022-12-29T15:38:30;99039.66;;;4.83;90.34
43707;BME280;61348;53.392;-6.248;2022-12-29T15:44:39;99059.00;;;4.74;90.27
43707;BME280;61348;53.392;-6.248;2022-12-29T15:50:42;99056.41;;;4.66;90.87
43707;BME280;61348;53.392;-6.248;2022-12-29T15:53:23;99063.34;;;4.63;90.73
43707;BME280;61348;53.392;-6.248;2022-12-29T15:56:00;99066.44;;;4.62;91.06
43707;BME280;61348;53.392;-6.248;2022-12-29T15:58:30;99072.63;;;4.59;90.89
43707;BME280;61348;53.392;-6.248;2022-12-29T16:01:03;99060.84;;;4.58;91.13
43707;BME280;61348;53.392;-6.248;2022-12-29T16:07:54;99072.41;;;4.52;91.55
43707;BME280;61348;53.392;-6.248;2022-12-29T16:10:32;99063.75;;;4.50;91.66
43707;BME280;61348;53.392;-6.248;2022-12-29T16:13:28;99057.78;;;4.48;91.50
43707;BME280;61348;53.392;-6.248;2022-12-29T16:16:13;99061.34;;;4.48;91.48
43707;BME280;61348;53.392;-6.248;2022-12-29T16:18:43;99058.97;;;4.47;91.97
43707;BME280;61348;53.392;-6.248;2022-12-29T16:28:23;99076.53;;;4.46;91.97
43707;BME280;61348;53.392;-6.248;2022-12-29T16:31:22;99081.22;;;4.45;92.11
43707;BME280;61348;53.392;-6.248;2022-12-29T16:37:47;99097.31;;;4.47;92.04
43707;BME280;61348;53.392;-6.248;2022-12-29T16:46:27;99119.25;;;4.47;92.44
43707;BME280;61348;53.392;-6.248;2022-12-29T16:49:06;99122.78;;;4.47;92.47
43707;BME280;61348;53.392;-6.248;2022-12-29T16:51:47;99124.72;;;4.47;92.61
43707;BME280;61348;53.392;-6.248;2022-12-29T16:57:30;99125.16;;;4.49;92.63
43707;BME280;61348;53.392;-6.248;2022-12-29T17:00:29;99125.53;;;4.47;92.70
43707;BME280;61348;53.392;-6.248;2022-12-29T17:03:43;99130.53;;;4.45;93.15
43707;BME280;61348;53.392;-6.248;2022-12-29T17:06:16;99130.09;;;4.43;93.21
43707;BME280;61348;53.392;-6.248;2022-12-29T17:09:01;99128.47;;;4.42;93.22
43707;BME280;61348;53.392;-6.248;2022-12-29T17:11:30;99141.84;;;4.44;93.16
43707;BME280;61348;53.392;-6.248;2022-12-29T17:17:18;99145.25;;;4.41;93.52
43707;BME280;61348;53.392;-6.248;2022-12-29T17:23:30;99160.09;;;4.40;93.60
43707;BME280;61348;53.392;-6.248;2022-12-29T17:25:58;99168.31;;;4.40;93.63
43707;BME280;61348;53.392;-6.248;2022-12-29T17:32:15;99174.50;;;4.37;93.90
43707;BME280;61348;53.392;-6.248;2022-12-29T17:34:42;99179.50;;;4.35;93.55
43707;BME280;61348;53.392;-6.248;2022-12-29T17:37:36;99186.16;;;4.34;94.07
43707;BME280;61348;53.392;-6.248;2022-12-29T17:47:49;99179.63;;;4.26;94.22
43707;BME280;61348;53.392;-6.248;2022-12-29T17:50:24;99178.03;;;4.25;93.89
43707;BME280;61348;53.392;-6.248;2022-12-29T17:57:03;99188.97;;;4.25;93.87
43707;BME280;61348;53.392;-6.248;2022-12-29T17:59:38;99194.47;;;4.25;94.21
43707;BME280;61348;53.392;-6.248;2022-12-29T18:02:38;99187.72;;;4.22;94.32
43707;BME280;61348;53.392;-6.248;2022-12-29T18:05:41;99180.31;;;4.23;94.13
43707;BME280;61348;53.392;-6.248;2022-12-29T18:08:09;99185.78;;;4.23;94.11
43707;BME280;61348;53.392;-6.248;2022-12-29T18:10:37;99183.50;;;4.25;94.19
43707;BME280;61348;53.392;-6.248;2022-12-29T18:13:05;99182.03;;;4.27;94.41
43707;BME280;61348;53.392;-6.248;2022-12-29T18:15:34;99180.91;;;4.28;94.37
43707;BME280;61348;53.392;-6.248;2022-12-29T18:18:12;99190.69;;;4.29;94.58
43707;BME280;61348;53.392;-6.248;2022-12-29T18:20:41;99186.16;;;4.34;94.53
43707;BME280;61348;53.392;-6.248;2022-12-29T18:23:20;99184.53;;;4.32;94.35
43707;BME280;61348;53.392;-6.248;2022-12-29T18:36:49;99185.22;;;4.29;94.45
43707;BME280;61348;53.392;-6.248;2022-12-29T18:39:18;99174.25;;;4.29;94.75
43707;BME280;61348;53.392;-6.248;2022-12-29T18:44:52;99167.28;;;4.32;94.86
43707;BME280;61348;53.392;-6.248;2022-12-29T18:47:22;99161.81;;;4.32;94.76
43707;BME280;61348;53.392;-6.248;2022-12-29T18:50:09;99167.66;;;4.30;94.56
43707;BME280;61348;53.392;-6.248;2022-12-29T18:52:36;99147.66;;;4.30;94.96
43707;BME280;61348;53.392;-6.248;2022-12-29T18:58:43;99150.06;;;4.31;95.05
43707;BME280;61348;53.392;-6.248;2022-12-29T19:01:36;99150.06;;;4.31;94.90
43707;BME280;61348;53.392;-6.248;2022-12-29T19:04:26;99154.06;;;4.34;95.24
43707;BME280;61348;53.392;-6.248;2022-12-29T19:06:53;99151.78;;;4.36;95.20
43707;BME280;61348;53.392;-6.248;2022-12-29T19:09:20;99145.94;;;4.38;95.55
43707;BME280;61348;53.392;-6.248;2022-12-29T19:11:46;99130.75;;;4.40;95.06
43707;BME280;61348;53.392;-6.248;2022-12-29T19:14:14;99135.13;;;4.41;95.33
43707;BME280;61348;53.392;-6.248;2022-12-29T19:16:42;99137.50;;;4.43;95.32
43707;BME280;61348;53.392;-6.248;2022-12-29T19:19:13;99130.53;;;4.45;95.12
43707;BME280;61348;53.392;-6.248;2022-12-29T19:21:40;99120.03;;;4.47;95.21
43707;BME280;61348;53.392;-6.248;2022-12-29T19:24:07;99110.66;;;4.48;95.19
43707;BME280;61348;53.392;-6.248;2022-12-29T19:26:36;99108.38;;;4.50;95.25
43707;BME280;61348;53.392;-6.248;2022-12-29T19:29:05;99117.06;;;4.52;95.46
43707;BME280;61348;53.392;-6.248;2022-12-29T19:34:56;99097.19;;;4.55;95.37
43707;BME280;61348;53.392;-6.248;2022-12-29T19:37:23;99086.69;;;4.57;95.45
43707;BME280;61348;53.392;-6.248;2022-12-29T19:39:50;99078.09;;;4.59;95.03
43707;BME280;61348;53.392;-6.248;2022-12-29T19:42:17;99063.28;;;4.60;95.24
43707;BME280;61348;53.392;-6.248;2022-12-29T19:52:25;99028.19;;;4.65;95.33
43707;BME280;61348;53.392;-6.248;2022-12-29T19:55:09;99008.66;;;4.67;95.09
43707;BME280;61348;53.392;-6.248;2022-12-29T19:58:01;98996.56;;;4.68;95.33
43707;BME280;61348;53.392;-6.248;2022-12-29T20:00:38;99004.09;;;4.71;95.27
43707;BME280;61348;53.392;-6.248;2022-12-29T20:03:40;98997.44;;;4.72;95.02
43707;BME280;61348;53.392;-6.248;2022-12-29T20:06:27;99003.34;;;4.74;95.07
43707;BME280;61348;53.392;-6.248;2022-12-29T20:09:14;98992.41;;;4.74;95.05
43707;BME280;61348;53.392;-6.248;2022-12-29T20:11:42;98995.59;;;4.76;95.21
43707;BME280;61348;53.392;-6.248;2022-12-29T20:14:38;99001.16;;;4.79;95.20
43707;BME280;61348;53.392;-6.248;2022-12-29T20:17:37;98990.31;;;4.83;95.04
43707;BME280;61348;53.392;-6.248;2022-12-29T20:28:05;98981.84;;;4.88;94.78
43707;BME280;61348;53.392;-6.248;2022-12-29T20:30:34;98985.81;;;4.90;94.74
43707;BME280;61348;53.392;-6.248;2022-12-29T20:33:02;98973.34;;;4.93;94.69
43707;BME280;61348;53.392;-6.248;2022-12-29T20:39:54;98959.03;;;5.00;94.59
43707;BME280;61348;53.392;-6.248;2022-12-29T20:42:41;98960.28;;;5.02;94.59
43707;BME280;61348;53.392;-6.248;2022-12-29T20:45:08;98954.44;;;5.04;94.44
43707;BME280;61348;53.392;-6.248;2022-12-29T20:54:33;98937.38;;;5.10;94.10
43707;BME280;61348;53.392;-6.248;2022-12-29T20:57:05;98929.16;;;5.10;94.13
43707;BME280;61348;53.392;-6.248;2022-12-29T20:59:59;98921.25;;;5.09;93.96
43707;BME280;61348;53.392;-6.248;2022-12-29T21:02:26;98916.94;;;5.08;94.16
43707;BME280;61348;53.392;-6.248;2022-12-29T21:11:48;98887.09;;;5.06;94.37
43707;BME280;61348;53.392;-6.248;2022-12-29T21:14:15;98898.53;;;5.08;93.81
43707;BME280;61348;53.392;-6.248;2022-12-29T21:25:23;98863.31;;;5.10;93.70
43707;BME280;61348;53.392;-6.248;2022-12-29T21:27:51;98850.75;;;5.09;93.65
43707;BME280;61348;53.392;-6.248;2022-12-29T21:30:18;98842.19;;;5.11;93.76
43707;BME280;61348;53.392;-6.248;2022-12-29T21:54:24;98755.72;;;5.17;93.40
43707;BME280;61348;53.392;-6.248;2022-12-29T21:57:11;98745.09;;;5.15;93.49
43707;BME280;61348;53.392;-6.248;2022-12-29T21:59:46;98746.25;;;5.14;93.96
43707;BME280;61348;53.392;-6.248;2022-12-29T22:02:31;98721.56;;;5.14;93.89
43707;BME280;61348;53.392;-6.248;2022-12-29T22:05:28;98696.44;;;5.12;94.18
43707;BME280;61348;53.392;-6.248;2022-12-29T22:08:13;98687.41;;;5.12;94.23
43707;BME280;61348;53.392;-6.248;2022-12-29T22:10:59;98670.16;;;5.11;94.63
43707;BME280;61348;53.392;-6.248;2022-12-29T22:13:44;98654.88;;;5.10;94.63